Time;durP1;ratioP1;P1;durP2;ratioP2;P2;SDS_P1;SDS_P2;PMS_P1;PMS_P2;Temp;Humidity;BMP_temperature;BMP_pressure;BME280_temperature;BME280_humidity;BME280_pressure;Samples;Min_cycle;Max_cycle;Signal;HPM_P1;HPM_P2
2022/04/07 00:01:10;;;;;;;;;11.33;10.00;;;;;21.15;48.96;98875.98;110274;1264;18997;-51
2022/04/07 00:03:38;;;;;;;;;12.00;12.00;;;;;21.17;48.70;98875.66;110189;1264;18819;-52
2022/04/07 00:06:09;;;;;;;;;8.00;8.00;;;;;21.16;48.82;98871.89;110235;1264;19677;-53
2022/04/07 00:08:36;;;;;;;;;8.00;8.00;;;;;21.17;48.64;98871.14;110317;1265;18852;-52
2022/04/07 00:11:04;;;;;;;;;6.67;6.67;;;;;21.16;48.71;98867.24;110263;1264;20262;-53
2022/04/07 00:13:31;;;;;;;;;9.00;8.00;;;;;21.15;48.48;98865.70;110182;1264;23214;-48
2022/04/07 00:15:59;;;;;;;;;6.67;6.67;;;;;21.16;48.84;98864.40;110255;1264;18515;-52
2022/04/07 00:18:26;;;;;;;;;8.50;8.00;;;;;21.15;48.66;98855.57;110210;1265;20289;-51
2022/04/07 00:20:54;;;;;;;;;8.00;6.00;;;;;21.16;48.43;98851.86;110213;1264;19592;-51
2022/04/07 00:23:22;;;;;;;;;10.33;9.33;;;;;21.16;48.54;98851.82;110262;1265;20113;-55
2022/04/07 00:25:49;;;;;;;;;5.33;5.33;;;;;21.16;48.33;98847.26;110012;1264;18961;-51
2022/04/07 00:28:16;;;;;;;;;8.67;8.00;;;;;21.16;48.51;98848.77;110031;1265;19585;-53
2022/04/07 00:30:44;;;;;;;;;9.00;8.00;;;;;21.16;48.56;98847.39;110227;1264;21161;-49
2022/04/07 00:33:11;;;;;;;;;12.00;9.33;;;;;21.15;48.48;98847.73;110258;1264;18677;-54
2022/04/07 00:35:38;;;;;;;;;9.33;9.33;;;;;21.16;48.49;98846.38;110314;1265;21395;-52
2022/04/07 00:38:06;;;;;;;;;6.00;6.00;;;;;21.14;48.17;98836.34;110278;1265;19933;-51
2022/04/07 00:40:33;;;;;;;;;11.33;10.67;;;;;21.15;48.38;98833.39;110289;1264;18995;-52
2022/04/07 00:43:00;;;;;;;;;9.00;9.00;;;;;21.13;48.48;98830.45;110298;1264;19483;-53
2022/04/07 00:45:27;;;;;;;;;8.50;8.50;;;;;21.13;48.44;98825.59;110174;1264;18742;-51
2022/04/07 00:47:55;;;;;;;;;8.00;6.00;;;;;21.13;48.42;98823.58;110268;1264;20256;-54
2022/04/07 00:50:22;;;;;;;;;8.33;7.67;;;;;21.12;48.21;98819.35;110283;1264;19516;-52
2022/04/07 00:52:49;;;;;;;;;8.50;8.50;;;;;21.12;48.27;98818.23;110235;1265;22255;-51
2022/04/07 00:55:16;;;;;;;;;8.00;8.00;;;;;21.11;48.33;98811.69;110270;1264;18868;-52
2022/04/07 00:57:43;;;;;;;;;8.00;8.00;;;;;21.13;48.22;98811.97;110236;1264;21731;-52
2022/04/07 01:00:11;;;;;;;;;6.00;6.00;;;;;21.11;48.39;98804.77;110246;1264;18616;-51
2022/04/07 01:02:38;;;;;;;;;6.67;6.00;;;;;21.11;48.38;98809.09;110270;1264;18783;-51
2022/04/07 01:05:05;;;;;;;;;8.33;8.33;;;;;21.12;48.32;98801.04;110245;1264;22332;-52
2022/04/07 01:07:36;;;;;;;;;12.00;9.00;;;;;21.10;48.38;98793.35;110265;1265;18551;-53
2022/04/07 01:10:03;;;;;;;;;8.50;8.00;;;;;21.11;48.26;98797.03;110234;1264;18778;-51
2022/04/07 01:12:30;;;;;;;;;8.50;6.00;;;;;21.11;48.23;98798.02;110168;1264;19740;-54
2022/04/07 01:14:59;;;;;;;;;9.67;8.67;;;;;21.11;47.99;98793.29;110263;1264;18597;-52
2022/04/07 01:17:26;;;;;;;;;9.00;6.00;;;;;21.11;48.10;98790.65;110324;1264;18711;-52
2022/04/07 01:19:53;;;;;;;;;9.00;8.67;;;;;21.12;48.04;98791.02;110256;1265;21314;-52
2022/04/07 01:22:20;;;;;;;;;9.00;8.00;;;;;21.10;47.90;98780.94;110266;1263;18566;-52
2022/04/07 01:24:47;;;;;;;;;8.67;8.67;;;;;21.10;48.23;98778.00;110274;1264;18938;-50
2022/04/07 01:27:15;;;;;;;;;8.33;8.33;;;;;21.11;47.80;98775.02;110248;1264;22895;-51
2022/04/07 01:29:43;;;;;;;;;9.00;7.33;;;;;21.10;47.99;98773.31;110284;1264;18582;-52
2022/04/07 01:32:10;;;;;;;;;6.67;6.67;;;;;21.10;48.00;98773.14;110259;1264;19012;-52
2022/04/07 01:34:37;;;;;;;;;7.67;7.67;;;;;21.10;48.03;98773.97;110236;1264;23513;-51
2022/04/07 01:37:04;;;;;;;;;10.67;9.33;;;;;21.10;47.85;98771.84;110265;1264;21716;-54
2022/04/07 01:39:32;;;;;;;;;10.00;9.00;;;;;21.10;47.75;98775.31;110247;1264;18822;-53
2022/04/07 01:41:59;;;;;;;;;10.00;9.00;;;;;21.11;47.81;98774.30;110190;1264;21159;-52
2022/04/07 01:44:27;;;;;;;;;9.00;8.00;;;;;21.10;47.74;98772.80;110244;1265;18885;-51
2022/04/07 01:46:54;;;;;;;;;9.00;8.67;;;;;21.10;47.87;98770.30;110265;1264;18628;-52
2022/04/07 01:49:21;;;;;;;;;8.00;8.00;;;;;21.10;47.88;98769.58;110314;1264;19471;-51
2022/04/07 01:51:48;;;;;;;;;7.33;7.33;;;;;21.08;47.71;98774.25;110271;1264;18680;-52
2022/04/07 01:54:15;;;;;;;;;8.50;8.00;;;;;21.08;47.89;98775.48;110269;1263;20488;-51
2022/04/07 01:56:43;;;;;;;;;8.67;8.67;;;;;21.08;47.93;98776.06;110323;1264;19501;-51
2022/04/07 01:59:10;;;;;;;;;8.67;8.67;;;;;21.08;47.75;98775.44;110264;1264;18530;-52
2022/04/07 02:01:37;;;;;;;;;9.00;9.00;;;;;21.07;47.78;98768.73;110279;1264;18723;-53
2022/04/07 02:04:05;;;;;;;;;11.00;8.50;;;;;21.08;47.76;98766.08;110260;1264;19619;-50
2022/04/07 02:06:32;;;;;;;;;8.33;8.33;;;;;21.07;47.91;98763.04;110254;1265;18609;-50
2022/04/07 02:09:00;;;;;;;;;6.00;6.00;;;;;21.06;47.81;98758.56;110291;1264;18793;-51
2022/04/07 02:11:28;;;;;;;;;8.00;7.67;;;;;21.06;47.90;98759.33;110319;1264;19574;-52
2022/04/07 02:13:55;;;;;;;;;8.00;8.00;;;;;21.06;47.54;98756.27;110309;1265;18505;-54
2022/04/07 02:16:22;;;;;;;;;8.67;8.67;;;;;21.07;47.61;98752.86;110199;1264;19352;-53
2022/04/07 02:18:50;;;;;;;;;9.67;8.00;;;;;21.06;47.74;98751.15;110304;1265;19856;-51
2022/04/07 02:21:17;;;;;;;;;8.00;8.00;;;;;21.05;47.50;98747.48;110309;1264;18454;-54
2022/04/07 02:23:44;;;;;;;;;9.33;8.00;;;;;21.05;47.61;98747.80;110324;1264;18786;-54
2022/04/07 02:26:12;;;;;;;;;9.67;9.33;;;;;21.07;47.79;98744.56;110194;1265;19584;-55
2022/04/07 02:28:39;;;;;;;;;9.00;8.50;;;;;21.06;47.47;98739.11;110179;1265;18725;-56
2022/04/07 02:31:06;;;;;;;;;10.00;9.67;;;;;21.05;47.66;98742.98;110136;1265;20204;-56
2022/04/07 02:33:34;;;;;;;;;9.00;8.00;;;;;21.05;47.51;98741.73;110207;1264;22284;-56
2022/04/07 02:36:02;;;;;;;;;9.67;9.67;;;;;21.07;47.59;98747.62;110288;1265;18869;-56
2022/04/07 02:38:29;;;;;;;;;8.67;7.33;;;;;21.06;47.45;98738.66;110327;1264;18750;-55
2022/04/07 02:40:56;;;;;;;;;8.67;8.67;;;;;21.06;47.43;98739.88;110275;1265;19770;-51
2022/04/07 02:43:23;;;;;;;;;10.33;8.33;;;;;21.06;47.44;98739.71;110265;1264;22769;-51
2022/04/07 02:45:51;;;;;;;;;8.67;8.00;;;;;21.06;47.47;98736.78;110260;1264;18849;-52
2022/04/07 02:48:18;;;;;;;;;9.33;8.33;;;;;21.06;47.50;98735.69;110283;1264;22790;-52
2022/04/07 02:50:45;;;;;;;;;8.00;6.00;;;;;21.06;47.63;98730.84;110286;1264;18517;-50
2022/04/07 02:53:13;;;;;;;;;8.00;8.00;;;;;21.05;47.56;98731.09;110267;1264;18724;-52
2022/04/07 02:55:41;;;;;;;;;8.50;8.00;;;;;21.06;47.34;98727.52;110161;1265;19511;-57
2022/04/07 02:58:08;;;;;;;;;9.50;9.00;;;;;21.04;47.54;98720.54;110086;1264;18356;-50
2022/04/07 03:00:36;;;;;;;;;9.33;9.33;;;;;21.05;47.33;98724.97;110209;1264;18626;-57
2022/04/07 03:03:03;;;;;;;;;11.33;8.33;;;;;21.05;47.37;98719.70;110232;1265;22698;-54
2022/04/07 03:05:31;;;;;;;;;9.00;8.50;;;;;21.05;47.15;98720.89;110188;1264;18902;-54
2022/04/07 03:07:58;;;;;;;;;9.67;8.67;;;;;21.07;47.31;98715.82;110229;1264;19019;-53
2022/04/07 03:10:25;;;;;;;;;9.33;8.67;;;;;21.08;47.26;98714.42;110249;1265;23938;-54
2022/04/07 03:12:52;;;;;;;;;7.67;7.33;;;;;21.07;47.08;98710.20;110296;1264;18469;-52
2022/04/07 03:15:19;;;;;;;;;7.33;5.67;;;;;21.05;47.23;98708.25;110259;1265;22801;-51
2022/04/07 03:17:47;;;;;;;;;8.00;8.00;;;;;21.04;47.23;98705.66;110338;1264;19537;-52
2022/04/07 03:20:14;;;;;;;;;10.00;10.00;;;;;21.04;47.09;98710.02;110285;1265;20112;-53
2022/04/07 03:22:43;;;;;;;;;6.67;6.67;;;;;21.03;47.01;98707.31;110288;1265;22192;-52
2022/04/07 03:25:10;;;;;;;;;15.00;10.00;;;;;21.04;46.95;98700.64;110257;1265;19637;-51
2022/04/07 03:27:37;;;;;;;;;9.00;9.00;;;;;21.02;47.36;98694.38;110223;1264;18461;-52
2022/04/07 03:30:04;;;;;;;;;8.00;6.00;;;;;21.03;47.12;98700.98;110261;1264;18880;-52
2022/04/07 03:32:32;;;;;;;;;6.67;6.67;;;;;21.04;47.03;98700.59;110334;1264;19673;-52
2022/04/07 03:34:59;;;;;;;;;12.00;10.00;;;;;21.03;47.28;98694.89;110249;1264;18485;-52
2022/04/07 03:37:26;;;;;;;;;8.33;8.33;;;;;21.01;47.01;98691.20;110287;1265;21708;-52
2022/04/07 03:39:53;;;;;;;;;13.67;11.33;;;;;21.03;47.11;98690.46;110296;1264;19508;-52
2022/04/07 03:42:20;;;;;;;;;7.00;7.00;;;;;21.04;47.23;98686.73;110269;1264;19900;-52
2022/04/07 03:44:48;;;;;;;;;10.67;9.67;;;;;21.03;47.07;98687.36;110330;1265;19205;-53
2022/04/07 03:47:15;;;;;;;;;9.67;8.67;;;;;21.04;46.99;98687.39;110260;1264;22226;-52
2022/04/07 03:49:42;;;;;;;;;9.33;8.33;;;;;21.04;47.02;98690.11;110255;1264;18659;-54
2022/04/07 03:52:09;;;;;;;;;12.50;9.50;;;;;21.03;47.04;98682.13;110265;1265;18809;-50
2022/04/07 03:54:37;;;;;;;;;8.00;6.67;;;;;21.03;46.87;98681.83;110253;1264;21250;-51
2022/04/07 03:57:04;;;;;;;;;6.00;6.00;;;;;21.03;46.77;98684.76;110295;1264;21622;-50
2022/04/07 03:59:35;;;;;;;;;8.50;8.50;;;;;21.03;46.82;98686.56;110303;1264;18939;-52
2022/04/07 04:02:03;;;;;;;;;8.00;8.00;;;;;21.04;46.75;98685.23;110284;1264;19539;-51
2022/04/07 04:04:30;;;;;;;;;9.33;8.33;;;;;21.05;46.96;98687.98;110230;1264;22248;-53
2022/04/07 04:06:57;;;;;;;;;9.00;9.00;;;;;21.03;46.82;98687.11;110267;1264;20671;-54
2022/04/07 04:09:24;;;;;;;;;10.00;8.00;;;;;21.05;46.89;98692.66;110285;1265;19682;-47
2022/04/07 04:11:52;;;;;;;;;9.00;8.00;;;;;21.04;46.75;98688.77;110316;1264;18601;-51
2022/04/07 04:14:20;;;;;;;;;9.50;9.00;;;;;21.05;46.73;98686.88;110285;1264;18617;-52
2022/04/07 04:16:47;;;;;;;;;7.33;6.00;;;;;21.04;46.73;98679.84;110258;1264;23585;-54
2022/04/07 04:19:15;;;;;;;;;8.00;8.00;;;;;21.04;46.86;98684.72;110282;1264;18607;-52
2022/04/07 04:21:42;;;;;;;;;7.33;7.33;;;;;21.03;46.68;98679.20;110274;1265;22736;-51
2022/04/07 04:24:11;;;;;;;;;6.00;6.00;;;;;21.04;46.64;98684.08;110254;1265;19682;-52
2022/04/07 04:26:38;;;;;;;;;9.33;8.00;;;;;21.04;46.78;98681.73;110315;1264;22338;-50
2022/04/07 04:29:05;;;;;;;;;10.00;8.00;;;;;21.02;46.74;98676.73;110258;1264;20168;-52
2022/04/07 04:31:33;;;;;;;;;6.00;6.00;;;;;21.03;46.65;98679.86;110294;1264;21148;-53
2022/04/07 04:34:00;;;;;;;;;13.00;10.00;;;;;21.03;46.75;98672.33;110264;1264;18643;-52
2022/04/07 04:36:28;;;;;;;;;9.00;9.00;;;;;21.03;46.71;98678.56;110279;1263;18763;-52
2022/04/07 04:38:56;;;;;;;;;9.00;9.00;;;;;21.02;46.65;98678.86;110296;1264;19736;-55
2022/04/07 04:41:23;;;;;;;;;9.67;8.33;;;;;21.02;46.46;98674.69;110310;1264;18578;-52
2022/04/07 04:43:50;;;;;;;;;10.00;10.00;;;;;21.02;46.79;98678.96;110251;1265;18734;-51
2022/04/07 04:46:18;;;;;;;;;6.00;6.00;;;;;21.03;46.52;98677.35;110222;1264;19531;-51
2022/04/07 04:48:45;;;;;;;;;9.00;9.00;;;;;21.03;46.64;98678.27;110242;1265;18916;-51
2022/04/07 04:51:12;;;;;;;;;6.67;6.00;;;;;21.03;46.61;98677.41;110169;1265;18771;-52
2022/04/07 04:53:39;;;;;;;;;10.00;8.33;;;;;21.04;46.47;98679.80;110206;1265;19867;-52
2022/04/07 04:56:07;;;;;;;;;8.00;8.00;;;;;21.03;46.60;98679.27;110247;1264;18569;-53
2022/04/07 04:58:34;;;;;;;;;7.33;7.33;;;;;21.00;46.53;98677.39;110264;1264;19050;-51
2022/04/07 05:01:01;;;;;;;;;9.00;8.67;;;;;21.02;46.45;98680.48;110203;1265;19502;-54
2022/04/07 05:03:28;;;;;;;;;7.33;7.33;;;;;21.02;46.82;98675.30;110229;1265;18615;-48
2022/04/07 05:05:56;;;;;;;;;12.00;9.00;;;;;21.02;46.69;98678.20;110297;1264;21550;-54
2022/04/07 05:08:23;;;;;;;;;8.67;7.33;;;;;21.03;46.65;98679.52;110252;1264;19794;-53
2022/04/07 05:10:50;;;;;;;;;12.67;10.67;;;;;21.03;46.40;98676.05;110202;1265;22215;-52
2022/04/07 05:13:17;;;;;;;;;9.33;9.33;;;;;21.04;46.56;98676.46;110127;1265;18930;-53
2022/04/07 05:15:44;;;;;;;;;8.00;5.67;;;;;21.02;46.68;98674.55;110270;1264;22928;-51
2022/04/07 05:18:12;;;;;;;;;9.00;9.00;;;;;21.05;46.35;98681.31;110243;1265;18553;-52
2022/04/07 05:20:39;;;;;;;;;8.00;8.00;;;;;21.03;46.43;98676.55;110316;1264;21916;-54
2022/04/07 05:23:06;;;;;;;;;9.00;9.00;;;;;21.03;46.63;98665.95;110227;1265;22960;-50
2022/04/07 05:25:33;;;;;;;;;8.33;7.33;;;;;21.03;46.56;98668.59;110290;1264;18309;-52
2022/04/07 05:28:01;;;;;;;;;9.00;8.00;;;;;21.06;46.59;98666.77;110234;1264;18884;-56
2022/04/07 05:30:28;;;;;;;;;11.33;10.00;;;;;21.11;46.73;98664.56;110092;1264;19486;-53
2022/04/07 05:32:55;;;;;;;;;11.67;11.67;;;;;21.18;47.04;98664.55;110182;1264;18616;-56
2022/04/07 05:35:26;;;;;;;;;9.50;9.50;;;;;21.21;46.90;98664.73;110217;1264;18978;-51
2022/04/07 05:37:53;;;;;;;;;9.67;9.00;;;;;21.21;46.95;98660.20;110257;1264;19592;-53
2022/04/07 05:40:20;;;;;;;;;10.00;9.00;;;;;21.23;46.74;98657.04;110220;1263;18594;-49
2022/04/07 05:42:47;;;;;;;;;10.67;10.00;;;;;21.22;46.74;98648.96;110216;1264;19049;-53
2022/04/07 05:45:15;;;;;;;;;10.00;8.50;;;;;21.21;46.91;98638.14;110220;1264;21899;-49
2022/04/07 05:47:42;;;;;;;;;10.00;10.00;;;;;21.20;47.23;98636.31;110250;1265;18864;-52
2022/04/07 05:50:09;;;;;;;;;12.33;9.33;;;;;21.18;47.64;98639.20;110190;1264;18939;-51
2022/04/07 05:52:36;;;;;;;;;14.33;12.67;;;;;21.17;47.67;98634.76;110229;1264;21374;-55
2022/04/07 05:55:03;;;;;;;;;10.00;10.00;;;;;21.19;47.54;98631.81;110228;1263;18770;-54
2022/04/07 05:57:31;;;;;;;;;12.33;11.33;;;;;21.26;47.79;98627.59;110250;1264;21965;-54
2022/04/07 05:59:58;;;;;;;;;9.00;9.00;;;;;21.32;47.74;98626.54;110291;1264;19604;-56
2022/04/07 06:02:25;;;;;;;;;11.33;9.33;;;;;21.32;48.34;98626.04;110303;1264;18815;-52
2022/04/07 06:04:53;;;;;;;;;13.00;10.00;;;;;21.34;48.33;98617.50;110245;1265;20902;-52
2022/04/07 06:07:20;;;;;;;;;10.00;10.00;;;;;21.34;48.45;98612.42;110241;1264;19633;-53
2022/04/07 06:09:47;;;;;;;;;9.00;9.00;;;;;21.36;48.40;98611.23;110248;1264;19972;-54
2022/04/07 06:12:14;;;;;;;;;9.00;8.00;;;;;21.41;48.59;98613.59;110238;1264;19061;-54
2022/04/07 06:14:42;;;;;;;;;8.00;8.00;;;;;21.45;48.77;98613.30;110239;1263;19366;-54
2022/04/07 06:17:09;;;;;;;;;9.00;8.00;;;;;21.47;48.53;98611.39;110089;1264;178178;-52
2022/04/07 06:19:36;;;;;;;;;12.00;10.00;;;;;21.48;48.45;98615.08;110046;1265;18786;-55
2022/04/07 06:22:07;;;;;;;;;13.33;10.67;;;;;21.49;48.42;98622.02;110248;1264;19967;-51
2022/04/07 06:24:34;;;;;;;;;10.00;9.00;;;;;21.47;48.22;98621.01;110220;1264;19020;-53
2022/04/07 06:27:01;;;;;;;;;9.67;9.67;;;;;21.52;48.24;98619.91;110277;1264;18768;-54
2022/04/07 06:29:28;;;;;;;;;9.00;8.50;;;;;21.52;48.09;98613.55;110166;1265;19830;-51
2022/04/07 06:31:55;;;;;;;;;10.00;9.50;;;;;21.58;48.22;98616.05;110135;1266;18471;-51
2022/04/07 06:34:23;;;;;;;;;9.00;9.00;;;;;21.62;47.87;98613.14;110119;1265;18725;-52
2022/04/07 06:36:50;;;;;;;;;10.00;9.00;;;;;21.67;47.78;98615.89;110098;1266;19629;-52
2022/04/07 06:39:17;;;;;;;;;26.00;25.67;;;;;21.61;47.52;98610.69;110130;1267;18545;-51
2022/04/07 06:41:44;;;;;;;;;25.00;22.00;;;;;21.40;44.99;98605.46;110188;1265;19978;-53
2022/04/07 06:44:12;;;;;;;;;30.33;26.33;;;;;21.19;42.90;98607.13;110025;1266;19616;-55
2022/04/07 06:46:39;;;;;;;;;31.33;25.00;;;;;21.07;42.56;98603.39;110065;1266;18663;-54
2022/04/07 06:49:06;;;;;;;;;30.00;28.00;;;;;21.03;41.56;98594.90;109945;1265;19025;-50
2022/04/07 06:51:33;;;;;;;;;35.00;31.50;;;;;20.93;40.43;98598.10;110059;1265;19493;-56
2022/04/07 06:54:01;;;;;;;;;32.00;28.33;;;;;20.86;39.80;98597.39;110123;1265;21833;-55
2022/04/07 06:56:28;;;;;;;;;20.50;20.50;;;;;20.76;39.14;98601.11;110127;1264;19767;-49
2022/04/07 06:58:55;;;;;;;;;23.50;21.00;;;;;20.74;39.20;98592.39;110060;1266;20934;-54
2022/04/07 07:01:22;;;;;;;;;19.67;19.67;;;;;20.73;39.25;98593.56;110115;1266;18832;-54
2022/04/07 07:03:49;;;;;;;;;19.50;17.50;;;;;20.76;39.17;98595.75;110159;1264;18965;-52
2022/04/07 07:06:17;;;;;;;;;18.67;17.33;;;;;20.81;39.23;98592.67;110152;1265;21985;-52
2022/04/07 07:08:45;;;;;;;;;16.67;16.33;;;;;20.82;38.81;98584.11;110107;1267;20156;-54
2022/04/07 07:11:12;;;;;;;;;16.00;14.33;;;;;20.86;38.77;98582.64;109962;1266;18984;-53
2022/04/07 07:13:39;;;;;;;;;17.33;15.00;;;;;20.84;38.87;98579.44;110120;1267;19647;-51
2022/04/07 07:16:07;;;;;;;;;16.00;15.00;;;;;20.87;38.62;98566.92;110097;1267;19086;-55
2022/04/07 07:18:34;;;;;;;;;17.00;16.67;;;;;20.90;38.68;98566.05;110073;1265;18875;-52
2022/04/07 07:21:01;;;;;;;;;14.00;14.00;;;;;20.93;39.00;98562.65;110184;1265;19724;-57
2022/04/07 07:23:28;;;;;;;;;17.67;15.00;;;;;20.93;38.59;98571.56;110151;1265;18826;-54
2022/04/07 07:25:59;;;;;;;;;13.00;12.00;;;;;20.85;38.60;98566.11;110124;1267;18921;-59
2022/04/07 07:28:26;;;;;;;;;16.00;14.00;;;;;20.87;38.65;98556.92;110103;1264;19796;-55
2022/04/07 07:30:53;;;;;;;;;13.33;13.33;;;;;20.92;38.83;98556.63;110054;1267;19122;-51
2022/04/07 07:33:21;;;;;;;;;13.67;13.67;;;;;20.84;38.55;98553.14;110016;1267;20308;-53
2022/04/07 07:35:48;;;;;;;;;16.33;15.67;;;;;20.85;38.49;98549.02;109974;1267;19686;-55
2022/04/07 07:38:15;;;;;;;;;15.67;13.00;;;;;20.84;38.69;98547.36;109976;1267;20828;-53
2022/04/07 07:40:43;;;;;;;;;16.00;16.00;;;;;20.82;38.42;98541.54;110083;1267;19064;-52
2022/04/07 07:43:10;;;;;;;;;14.00;13.00;;;;;20.79;38.55;98542.61;110096;1267;20429;-50
2022/04/07 07:45:37;;;;;;;;;16.67;13.67;;;;;20.77;38.47;98542.17;110142;1265;18883;-53
2022/04/07 07:48:05;;;;;;;;;13.00;12.00;;;;;20.74;38.55;98539.67;110148;1264;22477;-56
2022/04/07 07:50:32;;;;;;;;;17.50;16.00;;;;;20.73;38.59;98536.45;110244;1264;22248;-52
2022/04/07 07:52:59;;;;;;;;;15.67;14.00;;;;;20.72;38.52;98535.77;110226;1265;18761;-54
2022/04/07 07:55:26;;;;;;;;;13.67;13.00;;;;;20.74;38.62;98536.47;110190;1264;18697;-51
2022/04/07 07:57:54;;;;;;;;;13.33;13.00;;;;;20.78;38.53;98528.89;110119;1264;19585;-50
2022/04/07 08:00:23;;;;;;;;;13.00;12.00;;;;;20.82;38.31;98528.41;109933;1264;19005;-50
2022/04/07 08:02:51;;;;;;;;;12.67;12.67;;;;;20.82;38.51;98523.02;111746;1265;18922;-51
2022/04/07 08:05:18;;;;;;;;;14.67;12.67;;;;;20.78;38.80;98517.79;110507;1264;21027;-52
2022/04/07 08:07:45;;;;;;;;;15.33;13.00;;;;;20.84;38.97;98516.71;110227;1264;18748;-54
2022/04/07 08:10:12;;;;;;;;;20.00;16.50;;;;;20.89;38.98;98520.27;110137;1265;22834;-53
2022/04/07 08:12:40;;;;;;;;;26.00;21.67;;;;;20.84;38.99;98515.45;110073;1264;19633;-52
2022/04/07 08:15:07;;;;;;;;;28.00;21.33;;;;;20.89;38.98;98514.30;110080;1264;18754;-51
2022/04/07 08:17:35;;;;;;;;;21.67;18.00;;;;;20.92;38.56;98513.11;110176;1265;18809;-51
2022/04/07 08:20:03;;;;;;;;;24.00;19.67;;;;;20.91;38.70;98508.35;110094;1267;19601;-51
2022/04/07 08:22:30;;;;;;;;;22.33;19.00;;;;;20.85;38.72;98504.46;110224;1264;18644;-55
2022/04/07 08:24:57;;;;;;;;;17.67;16.00;;;;;20.84;38.59;98497.27;110237;1264;19183;-55
2022/04/07 08:27:25;;;;;;;;;16.00;14.00;;;;;20.91;38.62;98501.10;110235;1264;19798;-55
2022/04/07 08:29:52;;;;;;;;;15.33;13.33;;;;;20.97;38.34;98499.30;110229;1265;19181;-51
2022/04/07 08:32:19;;;;;;;;;13.67;12.00;;;;;21.04;38.54;98498.40;110281;1264;18875;-55
2022/04/07 08:34:47;;;;;;;;;13.67;13.67;;;;;21.03;38.77;98493.04;110135;1264;19554;-54
2022/04/07 08:37:14;;;;;;;;;13.00;11.33;;;;;20.99;38.53;98495.38;110240;1264;19210;-52
2022/04/07 08:39:41;;;;;;;;;13.67;12.00;;;;;20.94;38.47;98500.64;110258;1264;18788;-55
2022/04/07 08:42:08;;;;;;;;;10.67;10.67;;;;;20.92;38.45;98493.09;110242;1265;19371;-54
2022/04/07 08:44:36;;;;;;;;;14.00;12.33;;;;;20.96;38.65;98497.92;110272;1264;18683;-51
2022/04/07 08:47:03;;;;;;;;;12.00;12.00;;;;;20.96;38.44;98490.56;110140;1263;19089;-53
2022/04/07 08:49:31;;;;;;;;;14.00;10.00;;;;;20.95;38.60;98489.28;109912;1265;20242;-52
2022/04/07 08:51:58;;;;;;;;;12.00;10.00;;;;;20.96;38.45;98482.06;109945;1268;18696;-54
2022/04/07 08:54:25;;;;;;;;;12.00;9.33;;;;;20.92;38.27;98477.60;110184;1264;19038;-53
2022/04/07 08:56:52;;;;;;;;;10.67;10.67;;;;;20.87;38.11;98473.73;110296;1264;20400;-51
2022/04/07 08:59:21;;;;;;;;;9.00;9.00;;;;;20.88;38.08;98468.09;110160;1264;18979;-54
2022/04/07 09:01:48;;;;;;;;;9.00;8.00;;;;;20.92;38.22;98470.42;110211;1264;18787;-52
2022/04/07 09:04:15;;;;;;;;;13.33;10.00;;;;;20.90;38.22;98465.30;110115;1265;22172;-53
2022/04/07 09:06:42;;;;;;;;;9.00;9.00;;;;;20.91;38.32;98462.27;110158;1265;18339;-54
2022/04/07 09:09:10;;;;;;;;;10.00;10.00;;;;;20.91;38.01;98454.38;110185;1265;18928;-56
2022/04/07 09:11:37;;;;;;;;;7.33;7.33;;;;;20.90;38.22;98448.64;110261;1264;20512;-55
2022/04/07 09:14:04;;;;;;;;;9.00;9.00;;;;;20.89;38.39;98446.48;110225;1264;20651;-51
2022/04/07 09:16:32;;;;;;;;;12.00;10.00;;;;;20.89;38.41;98448.61;110221;1264;18872;-52
2022/04/07 09:18:59;;;;;;;;;12.00;12.00;;;;;20.92;38.84;98445.80;110154;1264;19692;-55
2022/04/07 09:21:27;;;;;;;;;12.67;10.00;;;;;20.77;38.84;98440.57;110119;1264;19306;-53
2022/04/07 09:23:54;;;;;;;;;13.50;12.50;;;;;20.66;39.15;98442.67;110198;1264;21586;-57
2022/04/07 09:26:21;;;;;;;;;10.00;9.00;;;;;20.70;39.04;98441.36;110133;1264;23806;-59
2022/04/07 09:28:50;;;;;;;;;12.00;9.00;;;;;20.70;38.75;98435.53;110187;1264;18803;-56
2022/04/07 09:31:17;;;;;;;;;12.00;9.67;;;;;20.70;38.93;98431.67;110218;1264;22792;-52
2022/04/07 09:33:44;;;;;;;;;9.00;9.00;;;;;20.69;38.52;98430.35;110260;1265;19598;-52
2022/04/07 09:36:11;;;;;;;;;9.00;8.50;;;;;20.75;38.59;98419.89;110242;1264;18719;-53
2022/04/07 09:38:38;;;;;;;;;9.00;9.00;;;;;20.83;38.54;98422.42;110265;1264;20533;-53
2022/04/07 09:41:06;;;;;;;;;9.00;9.00;;;;;20.89;38.62;98415.73;110191;1264;19569;-55
2022/04/07 09:43:33;;;;;;;;;9.33;9.00;;;;;20.94;38.53;98415.65;110255;1264;18496;-55
2022/04/07 09:46:00;;;;;;;;;11.00;9.67;;;;;20.81;38.59;98421.46;110230;1265;21683;-56
2022/04/07 09:48:28;;;;;;;;;8.50;8.50;;;;;20.75;39.10;98406.23;110243;1264;19854;-52
2022/04/07 09:50:55;;;;;;;;;10.00;10.00;;;;;20.75;38.79;98413.59;110248;1264;22299;-54
2022/04/07 09:53:22;;;;;;;;;12.33;12.00;;;;;20.77;38.77;98406.11;110138;1265;18783;-52
2022/04/07 09:55:49;;;;;;;;;10.00;8.33;;;;;20.76;38.45;98399.38;110237;1264;19386;-54
2022/04/07 09:58:17;;;;;;;;;11.00;8.67;;;;;20.77;38.61;98387.82;110196;1264;21895;-52
2022/04/07 10:00:44;;;;;;;;;11.67;9.33;;;;;20.80;38.61;98387.77;110130;1264;19419;-53
2022/04/07 10:03:13;;;;;;;;;10.00;9.00;;;;;20.86;38.45;98383.02;110163;1264;20338;-54
2022/04/07 10:05:40;;;;;;;;;6.00;6.00;;;;;20.84;38.52;98373.17;110219;1264;18801;-52
2022/04/07 10:08:08;;;;;;;;;10.00;10.00;;;;;20.74;38.02;98366.34;110996;1264;18731;-52
2022/04/07 10:10:35;;;;;;;;;8.00;8.00;;;;;20.77;37.97;98368.50;110090;1265;20868;-54
2022/04/07 10:13:02;;;;;;;;;5.67;5.67;;;;;20.81;38.04;98365.05;110175;1264;18750;-53
2022/04/07 10:15:30;;;;;;;;;8.00;7.33;;;;;20.80;37.74;98356.65;110206;1264;18731;-53
2022/04/07 10:17:57;;;;;;;;;9.33;8.00;;;;;20.74;37.85;98348.11;110308;1264;19478;-52
2022/04/07 10:20:24;;;;;;;;;9.33;9.00;;;;;20.74;37.76;98342.72;110238;1265;18325;-54
2022/04/07 10:22:51;;;;;;;;;9.00;8.00;;;;;20.76;37.61;98343.52;110242;1264;18916;-53
2022/04/07 10:25:18;;;;;;;;;5.00;5.00;;;;;20.78;37.42;98330.89;110154;1264;19831;-54
2022/04/07 10:27:46;;;;;;;;;8.00;8.00;;;;;20.81;37.40;98335.39;110137;1264;18573;-54
2022/04/07 10:30:13;;;;;;;;;8.00;7.00;;;;;20.76;37.57;98324.63;110201;1265;20385;-53
2022/04/07 10:32:40;;;;;;;;;9.00;9.00;;;;;20.67;37.40;98322.73;110265;1264;19944;-52
2022/04/07 10:35:07;;;;;;;;;8.00;8.00;;;;;20.69;37.56;98307.59;110225;1264;19997;-54
2022/04/07 10:37:35;;;;;;;;;9.00;8.00;;;;;20.69;37.53;98304.23;110094;1264;18746;-54
2022/04/07 10:40:02;;;;;;;;;6.00;6.00;;;;;20.64;37.69;98298.59;110217;1264;19884;-51
2022/04/07 10:42:29;;;;;;;;;6.67;6.00;;;;;20.60;37.92;98293.44;110162;1265;18634;-51
2022/04/07 10:44:57;;;;;;;;;6.00;6.00;;;;;20.60;37.75;98291.16;110193;1264;22618;-53
2022/04/07 10:47:24;;;;;;;;;5.00;5.00;;;;;20.59;38.11;98286.95;110130;1265;19876;-53
2022/04/07 10:49:52;;;;;;;;;7.33;7.33;;;;;20.66;37.78;98275.36;110257;1265;21088;-54
2022/04/07 10:52:19;;;;;;;;;6.00;6.00;;;;;20.50;37.20;98269.63;110154;1264;18781;-50
2022/04/07 10:54:46;;;;;;;;;9.33;9.00;;;;;20.45;36.95;98279.13;110220;1265;19574;-52
2022/04/07 10:57:14;;;;;;;;;8.00;6.00;;;;;20.47;37.18;98278.21;110169;1265;18472;-52
2022/04/07 10:59:41;;;;;;;;;5.33;5.33;;;;;20.50;36.85;98269.96;110153;1265;18866;-54
2022/04/07 11:02:10;;;;;;;;;6.00;6.00;;;;;20.60;36.79;98263.82;110145;1264;19959;-53
2022/04/07 11:04:37;;;;;;;;;8.67;6.00;;;;;20.65;36.58;98261.93;110221;1264;23717;-51
2022/04/07 11:07:04;;;;;;;;;8.67;8.67;;;;;20.56;36.66;98259.88;110107;1264;18770;-52
2022/04/07 11:09:31;;;;;;;;;8.33;8.00;;;;;20.48;36.65;98246.89;110084;1266;20759;-50
2022/04/07 11:11:59;;;;;;;;;6.00;6.00;;;;;20.47;36.77;98253.81;110273;1264;21064;-54
2022/04/07 11:14:26;;;;;;;;;5.00;5.00;;;;;20.59;37.05;98251.23;110242;1265;18896;-51
2022/04/07 11:16:53;;;;;;;;;6.00;6.00;;;;;20.79;37.32;98245.81;110204;1264;19842;-52
2022/04/07 11:19:20;;;;;;;;;8.00;7.33;;;;;20.95;37.70;98252.02;110213;1264;18521;-54